createdAt,value
2022-08-12T00:00:15.057Z,5.15
2022-08-12T00:03:01.014Z,4.57
2022-08-12T00:06:04.140Z,4.93
2022-08-12T00:08:56.218Z,5.10
2022-08-12T00:11:43.643Z,5.93
2022-08-12T00:14:29.785Z,6.07
2022-08-12T00:17:15.760Z,5.55
2022-08-12T00:20:01.806Z,5.35
2022-08-12T00:22:58.730Z,6.10
2022-08-12T00:26:20.929Z,5.32
2022-08-12T00:29:02.840Z,5.25
2022-08-12T00:31:48.474Z,5.50
2022-08-12T00:34:36.376Z,6.10
2022-08-12T00:37:23.099Z,5.80
2022-08-12T00:40:10.908Z,5.93
2022-08-12T00:42:42.160Z,6.20
2022-08-12T00:45:10.683Z,6.22
2022-08-12T00:47:38.699Z,5.82
2022-08-12T00:50:06.934Z,5.88
2022-08-12T00:52:35.868Z,5.63
2022-08-12T00:55:05.004Z,5.20
2022-08-12T00:57:37.147Z,5.95
2022-08-12T01:00:24.515Z,6.07
2022-08-12T01:02:55.974Z,5.60
2022-08-12T01:05:44.202Z,5.70
2022-08-12T01:08:30.033Z,6.22
2022-08-12T01:11:16.940Z,6.03
2022-08-12T01:13:48.807Z,5.70
2022-08-12T01:16:22.914Z,5.72
2022-08-12T01:18:52.505Z,6.00
2022-08-12T01:21:44.194Z,5.75
2022-08-12T01:24:38.092Z,5.55
2022-08-12T01:27:10.276Z,5.43
2022-08-12T01:29:44.098Z,5.50
2022-08-12T01:32:14.552Z,5.55
2022-08-12T01:34:51.459Z,5.38
2022-08-12T01:37:22.459Z,5.78
2022-08-12T01:40:34.042Z,5.55
2022-08-12T01:42:51.280Z,6.25
2022-08-12T01:45:25.023Z,5.72
2022-08-12T01:48:11.358Z,6.05
2022-08-12T01:52:15.339Z,5.97
2022-08-12T01:54:07.228Z,6.13
2022-08-12T01:57:15.123Z,5.45
2022-08-12T01:59:49.309Z,5.47
2022-08-12T02:02:17.717Z,5.43
2022-08-12T02:05:16.205Z,5.82
2022-08-12T02:08:04.991Z,6.45
2022-08-12T02:11:04.068Z,6.00
2022-08-12T02:13:52.317Z,6.18
2022-08-12T02:16:46.788Z,5.57
2022-08-12T02:19:23.024Z,6.72
2022-08-12T02:22:11.635Z,6.47
2022-08-12T02:24:42.738Z,6.57
2022-08-12T02:27:12.926Z,6.22
2022-08-12T02:29:41.080Z,6.15
2022-08-12T02:32:13.192Z,5.90
2022-08-12T02:34:40.559Z,5.82
2022-08-12T02:37:10.622Z,5.93
2022-08-12T02:39:40.954Z,5.43
2022-08-12T02:42:12.099Z,6.13
2022-08-12T02:44:41.903Z,5.47
2022-08-12T02:47:18.250Z,5.60
2022-08-12T02:49:58.639Z,5.72
2022-08-12T02:52:27.224Z,5.60
2022-08-12T02:55:00.235Z,6.97
2022-08-12T02:57:27.708Z,6.50
2022-08-12T02:59:56.127Z,6.93
2022-08-12T03:02:26.927Z,6.90
2022-08-12T03:04:57.585Z,6.90
2022-08-12T03:07:27.765Z,6.25
2022-08-12T03:10:17.668Z,7.18
2022-08-12T03:15:22.389Z,6.60
2022-08-12T03:18:30.058Z,6.15
2022-08-12T03:21:01.952Z,6.90
2022-08-12T03:23:31.349Z,6.30
2022-08-12T03:26:03.411Z,5.88
2022-08-12T03:28:51.062Z,6.75
2022-08-12T03:31:21.493Z,5.97
2022-08-12T03:34:01.241Z,6.65
2022-08-12T03:36:35.575Z,6.75
2022-08-12T03:39:15.535Z,6.88
2022-08-12T03:41:52.998Z,6.57
2022-08-12T03:44:50.695Z,6.95
2022-08-12T03:47:49.781Z,5.70
2022-08-12T03:50:37.179Z,6.45
2022-08-12T03:53:25.915Z,6.03
2022-08-12T03:56:12.017Z,6.30
2022-08-12T03:58:58.931Z,6.60
2022-08-12T04:01:27.874Z,6.55
2022-08-12T04:03:55.523Z,8.10
2022-08-12T04:06:35.573Z,8.00
2022-08-12T04:09:15.013Z,8.00
2022-08-12T04:12:04.614Z,7.75
2022-08-12T04:14:33.219Z,6.57
2022-08-12T04:17:01.635Z,7.82
2022-08-12T04:19:29.678Z,7.90
2022-08-12T04:22:02.674Z,8.07
2022-08-12T04:24:36.329Z,8.60
2022-08-12T04:27:07.429Z,8.50
2022-08-12T04:30:30.098Z,8.20
2022-08-12T04:32:22.873Z,8.70
2022-08-12T04:34:51.339Z,8.88
2022-08-12T04:37:18.550Z,10.30
2022-08-12T04:39:46.721Z,10.60
2022-08-12T04:42:14.266Z,9.95
2022-08-12T04:44:42.535Z,11.55
2022-08-12T04:47:14.379Z,11.73
2022-08-12T04:49:44.726Z,10.93
2022-08-12T04:52:13.036Z,11.10
2022-08-12T04:54:40.203Z,11.98
2022-08-12T04:57:09.859Z,11.95
2022-08-12T04:59:48.433Z,10.60
2022-08-12T05:02:22.009Z,11.30
2022-08-12T05:05:00.683Z,11.95
2022-08-12T05:07:28.387Z,11.32
2022-08-12T05:09:59.917Z,11.18
2022-08-12T05:12:43.283Z,10.95
2022-08-12T05:15:18.919Z,11.10
2022-08-12T05:17:56.203Z,11.32
2022-08-12T05:20:27.038Z,10.35
2022-08-12T05:23:13.001Z,9.80
2022-08-12T05:25:46.063Z,10.25
2022-08-12T05:28:14.489Z,9.40
2022-08-12T05:30:42.798Z,10.38
2022-08-12T05:33:12.050Z,8.93
2022-08-12T05:35:43.393Z,9.55
2022-08-12T05:38:37.543Z,8.38
2022-08-12T05:41:19.400Z,8.82
2022-08-12T05:43:52.209Z,8.15
2022-08-12T05:46:21.336Z,8.80
2022-08-12T05:48:54.448Z,8.02
2022-08-12T05:51:28.206Z,7.28
2022-08-12T05:54:08.851Z,5.32
2022-08-12T05:56:36.738Z,5.75
2022-08-12T05:59:09.746Z,5.43
2022-08-12T06:04:25.625Z,5.57
2022-08-12T06:06:53.642Z,4.25
2022-08-12T06:09:22.695Z,4.90
2022-08-12T06:12:05.169Z,4.90
2022-08-12T06:14:38.860Z,4.80
2022-08-12T06:17:08.918Z,4.70
2022-08-12T06:20:27.000Z,4.65
2022-08-12T06:22:23.851Z,5.32
2022-08-12T06:24:53.025Z,4.60
2022-08-12T06:27:21.754Z,4.95
2022-08-12T06:30:09.805Z,5.35
2022-08-12T06:32:42.870Z,3.78
2022-08-12T06:35:27.249Z,3.83
2022-08-12T06:38:20.580Z,3.58
2022-08-12T06:41:08.823Z,3.95
2022-08-12T06:44:06.544Z,3.40
2022-08-12T06:46:24.770Z,2.75
2022-08-12T06:48:57.152Z,2.88
2022-08-12T06:51:26.193Z,2.40
2022-08-12T06:53:53.852Z,2.65
2022-08-12T06:56:21.026Z,2.70
2022-08-12T06:58:48.296Z,2.47
2022-08-12T07:01:16.265Z,2.53
2022-08-12T07:03:43.688Z,2.85
2022-08-12T07:06:11.808Z,2.40
2022-08-12T07:08:40.032Z,2.60
2022-08-12T07:11:09.500Z,2.45
2022-08-12T07:14:02.467Z,2.60
2022-08-12T07:16:28.499Z,2.10
2022-08-12T07:18:58.203Z,2.38
2022-08-12T07:22:01.894Z,2.00
2022-08-12T07:24:15.370Z,1.70
2022-08-12T07:26:44.394Z,1.85
2022-08-12T07:29:12.044Z,1.60
2022-08-12T07:31:40.131Z,2.05
2022-08-12T07:34:07.936Z,2.50
2022-08-12T07:36:35.544Z,2.30
2022-08-12T07:39:04.000Z,2.28
2022-08-12T07:41:32.401Z,1.90
2022-08-12T07:44:23.831Z,1.90
2022-08-12T07:46:50.861Z,2.40
2022-08-12T07:49:18.352Z,2.13
2022-08-12T07:51:45.597Z,2.60
2022-08-12T07:54:13.884Z,2.40
2022-08-12T07:56:42.661Z,1.80
2022-08-12T07:59:10.106Z,1.80
2022-08-12T08:01:40.866Z,2.10
2022-08-12T08:04:26.767Z,2.15
2022-08-12T08:06:55.356Z,2.50
2022-08-12T08:09:24.423Z,2.25
2022-08-12T08:12:19.223Z,2.30
2022-08-12T08:14:49.887Z,2.28
2022-08-12T08:17:18.051Z,2.13
2022-08-12T08:20:01.964Z,2.60
2022-08-12T08:22:41.302Z,2.00
2022-08-12T08:25:34.844Z,1.98
2022-08-12T08:28:04.614Z,2.00
2022-08-12T08:30:32.990Z,1.83
2022-08-12T08:33:01.301Z,2.58
2022-08-12T08:35:32.823Z,1.90
2022-08-12T08:38:17.618Z,2.00
2022-08-12T08:42:19.265Z,2.03
2022-08-12T08:44:06.839Z,2.22
2022-08-12T08:46:38.059Z,2.00
2022-08-12T08:49:06.203Z,1.58
2022-08-12T08:51:33.856Z,2.00
2022-08-12T08:54:01.108Z,2.10
2022-08-12T08:56:31.262Z,1.90
2022-08-12T08:58:59.168Z,2.10
2022-08-12T09:01:37.882Z,1.90
2022-08-12T09:05:11.190Z,2.28
2022-08-12T09:06:56.864Z,2.15
2022-08-12T09:09:24.728Z,2.25
2022-08-12T09:15:19.168Z,2.20
2022-08-12T09:17:56.023Z,2.38
2022-08-12T09:20:30.073Z,2.10
2022-08-12T09:25:26.432Z,2.00
2022-08-12T09:30:53.915Z,2.17
2022-08-12T09:34:25.635Z,1.95
2022-08-12T09:36:31.291Z,2.97
2022-08-12T09:40:06.479Z,2.22
2022-08-12T09:42:42.680Z,2.30
2022-08-12T09:45:23.039Z,2.42
2022-08-12T09:47:58.835Z,1.90
2022-08-12T09:50:27.961Z,2.08
2022-08-12T09:53:29.285Z,2.50
2022-08-12T09:56:57.259Z,2.00
2022-08-12T09:58:59.859Z,2.08
2022-08-12T10:01:35.178Z,2.20
2022-08-12T10:04:19.847Z,1.90
2022-08-12T10:06:55.631Z,1.90
2022-08-12T10:09:58.584Z,2.30
2022-08-12T10:13:07.028Z,2.20
2022-08-12T10:16:02.978Z,1.90
2022-08-12T10:18:24.008Z,2.45
2022-08-12T10:20:53.425Z,2.60
2022-08-12T10:23:20.614Z,3.28
2022-08-12T10:26:38.115Z,2.60
2022-08-12T10:30:03.379Z,2.35
2022-08-12T10:32:44.631Z,2.50
2022-08-12T10:35:08.971Z,2.80
2022-08-12T10:38:34.638Z,2.42
2022-08-12T10:40:31.632Z,2.30
2022-08-12T10:43:18.993Z,2.67
2022-08-12T10:45:49.943Z,2.20
2022-08-12T10:48:26.993Z,2.90
2022-08-12T10:52:04.933Z,2.38
2022-08-12T10:54:00.549Z,2.80
2022-08-12T10:56:34.439Z,2.30
2022-08-12T10:59:11.111Z,2.63
2022-08-12T11:04:19.521Z,2.70
2022-08-12T11:04:41.454Z,2.25
2022-08-12T11:08:38.193Z,2.42
2022-08-12T11:10:02.478Z,2.45
2022-08-12T11:12:55.066Z,2.22
2022-08-12T11:15:32.742Z,2.20
2022-08-12T11:18:11.680Z,2.40
2022-08-12T11:20:44.678Z,2.60
2022-08-12T11:23:25.513Z,2.17
2022-08-12T11:26:07.419Z,2.42
2022-08-12T11:28:37.520Z,2.47
2022-08-12T11:31:13.214Z,2.25
2022-08-12T11:34:05.525Z,2.38
2022-08-12T11:36:31.532Z,2.42
2022-08-12T11:39:04.419Z,2.28
2022-08-12T11:41:34.872Z,2.25
2022-08-12T11:44:36.102Z,2.42
2022-08-12T11:46:52.608Z,2.20
2022-08-12T11:49:30.550Z,2.40
2022-08-12T11:52:01.585Z,2.20
2022-08-12T11:54:29.495Z,2.80
2022-08-12T11:56:59.592Z,2.78
2022-08-12T12:02:20.139Z,2.17
2022-08-12T12:04:53.067Z,1.90
2022-08-12T12:08:36.619Z,2.35
2022-08-12T12:10:14.489Z,2.53
2022-08-12T12:12:50.045Z,2.53
2022-08-12T12:15:24.663Z,2.55
2022-08-12T12:17:55.805Z,2.30
2022-08-12T12:20:26.084Z,2.50
2022-08-12T12:22:55.041Z,2.20
2022-08-12T12:25:59.613Z,1.92
2022-08-12T12:28:09.448Z,2.75
2022-08-12T12:30:56.631Z,1.85
2022-08-12T12:33:27.135Z,2.17
2022-08-12T12:36:20.697Z,2.88
2022-08-12T12:38:50.226Z,1.88
2022-08-12T12:41:17.949Z,2.17
2022-08-12T12:43:56.629Z,1.90
2022-08-12T12:46:31.474Z,1.60
2022-08-12T12:48:58.774Z,2.13
2022-08-12T12:52:17.185Z,2.22
2022-08-12T12:54:13.293Z,1.90
2022-08-12T12:56:44.621Z,1.75
2022-08-12T12:59:56.512Z,1.90
2022-08-12T13:02:07.753Z,1.95
2022-08-12T13:04:37.452Z,1.88
2022-08-12T13:07:11.890Z,1.90
2022-08-12T13:09:39.211Z,1.58
2022-08-12T13:12:10.418Z,2.38
2022-08-12T13:14:39.939Z,2.10
2022-08-12T13:17:09.778Z,1.92
2022-08-12T13:19:46.811Z,1.70
2022-08-12T13:22:21.014Z,1.80
2022-08-12T13:24:57.787Z,1.65
2022-08-12T13:27:48.424Z,1.90
2022-08-12T13:30:23.792Z,1.95
2022-08-12T13:32:58.506Z,2.63
2022-08-12T13:35:33.323Z,1.73
2022-08-12T13:38:02.760Z,1.40
2022-08-12T13:40:33.110Z,1.90
2022-08-12T13:43:02.118Z,2.03
2022-08-12T13:45:31.948Z,1.83
2022-08-12T13:48:05.302Z,1.40
2022-08-12T13:50:38.909Z,1.20
2022-08-12T13:55:59.351Z,1.60
2022-08-12T13:58:28.622Z,2.20
2022-08-12T14:00:58.516Z,2.22
2022-08-12T14:03:28.607Z,1.85
2022-08-12T14:06:15.542Z,2.30
2022-08-12T14:08:43.766Z,1.75
2022-08-12T14:11:13.220Z,2.00
2022-08-12T14:14:05.948Z,1.92
2022-08-12T14:16:37.984Z,1.70
2022-08-12T14:19:25.051Z,2.00
2022-08-12T14:22:01.154Z,1.60
2022-08-12T14:24:40.677Z,2.03
2022-08-12T14:27:10.888Z,2.30
2022-08-12T14:30:04.412Z,1.63
2022-08-12T14:35:09.069Z,2.15
2022-08-12T14:37:55.868Z,1.83
2022-08-12T14:40:29.376Z,2.10
2022-08-12T14:42:58.521Z,2.33
2022-08-12T14:45:37.091Z,2.00
2022-08-12T14:48:14.926Z,1.50
2022-08-12T14:51:09.544Z,2.83
2022-08-12T14:59:57.921Z,2.65
2022-08-12T15:02:18.967Z,2.05
2022-08-12T15:04:59.765Z,1.70
2022-08-12T15:07:34.168Z,2.17
2022-08-12T15:10:13.614Z,1.80
2022-08-12T15:12:40.954Z,2.67
2022-08-12T15:15:10.422Z,1.90
2022-08-12T15:17:39.172Z,3.47
2022-08-12T15:20:31.456Z,1.80
2022-08-12T15:22:57.823Z,2.20
2022-08-12T15:25:25.794Z,2.00
2022-08-12T15:28:05.709Z,2.03
2022-08-12T15:30:39.196Z,2.40
2022-08-12T15:33:12.778Z,1.60
2022-08-12T15:35:53.266Z,2.95
2022-08-12T15:38:24.625Z,1.80
2022-08-12T15:40:52.923Z,2.92
2022-08-12T15:43:35.538Z,1.75
2022-08-12T15:51:58.951Z,2.00
2022-08-12T15:54:33.989Z,1.90
2022-08-12T15:57:55.437Z,2.28
2022-08-12T16:00:37.269Z,2.05
2022-08-12T16:03:25.954Z,1.80
2022-08-12T16:07:00.725Z,1.90
2022-08-12T16:12:35.991Z,1.90
2022-08-12T16:15:11.317Z,2.05
2022-08-12T16:18:14.846Z,1.90
2022-08-12T16:20:35.448Z,2.95
2022-08-12T16:23:36.157Z,1.88
2022-08-12T16:26:06.410Z,2.30
2022-08-12T16:28:42.680Z,1.98
2022-08-12T16:31:14.392Z,1.77
2022-08-12T16:33:59.825Z,1.70
2022-08-12T16:36:29.372Z,2.95
2022-08-12T16:38:56.861Z,2.03
2022-08-12T16:41:24.396Z,2.08
2022-08-12T16:43:57.439Z,2.60
2022-08-12T16:46:33.823Z,2.33
2022-08-12T16:49:09.016Z,2.42
2022-08-12T16:51:47.041Z,2.40
2022-08-12T16:54:17.067Z,2.17
2022-08-12T16:57:01.386Z,2.42
2022-08-12T16:59:56.832Z,2.13
2022-08-12T17:02:34.347Z,2.50
2022-08-12T17:05:18.813Z,2.17
2022-08-12T17:10:58.083Z,3.13
2022-08-12T17:13:36.069Z,2.47
2022-08-12T17:16:20.638Z,2.20
2022-08-12T17:18:57.149Z,2.70
2022-08-12T17:22:01.602Z,3.60
2022-08-12T17:24:30.770Z,3.10
2022-08-12T17:27:09.478Z,3.60
2022-08-12T17:30:03.252Z,3.22
2022-08-12T17:32:31.483Z,3.20
2022-08-12T17:35:19.578Z,3.10
2022-08-12T17:37:48.627Z,3.55
2022-08-12T17:40:34.772Z,3.00
2022-08-12T17:43:54.701Z,5.35
2022-08-12T17:45:59.861Z,6.55
2022-08-12T17:48:34.439Z,3.83
2022-08-12T17:51:15.391Z,3.47
2022-08-12T17:54:10.514Z,3.00
2022-08-12T17:56:37.446Z,3.40
2022-08-12T17:59:07.658Z,2.45
2022-08-12T18:01:35.993Z,3.20
2022-08-12T18:04:22.170Z,3.38
2022-08-12T18:06:54.019Z,5.10
2022-08-12T18:09:24.556Z,5.53
2022-08-12T18:12:24.698Z,3.30
2022-08-12T18:15:02.066Z,3.97
2022-08-12T18:17:35.116Z,5.05
2022-08-12T18:20:08.717Z,4.45
2022-08-12T18:22:44.058Z,3.88
2022-08-12T18:26:13.236Z,4.28
2022-08-12T18:28:16.591Z,3.72
2022-08-12T18:30:53.398Z,3.65
2022-08-12T18:33:26.094Z,3.55
2022-08-12T18:35:58.421Z,3.55
2022-08-12T18:38:27.136Z,4.88
2022-08-12T18:41:21.964Z,5.07
2022-08-12T18:43:59.973Z,4.35
2022-08-12T18:46:53.748Z,4.05
2022-08-12T18:49:30.675Z,4.00
2022-08-12T18:52:04.346Z,4.00
2022-08-12T18:54:35.162Z,4.47
2022-08-12T18:57:19.407Z,4.88
2022-08-12T19:00:06.455Z,6.13
2022-08-12T19:02:40.749Z,7.90
2022-08-12T19:05:12.367Z,5.13
2022-08-12T19:08:01.159Z,5.15
2022-08-12T19:10:31.209Z,6.55
2022-08-12T19:13:23.287Z,6.47
2022-08-12T19:15:53.941Z,7.03
2022-08-12T19:18:25.939Z,6.70
2022-08-12T19:20:58.741Z,7.20
2022-08-12T19:23:35.398Z,6.68
2022-08-12T19:26:12.228Z,5.97
2022-08-12T19:28:41.296Z,5.10
2022-08-12T19:31:57.430Z,5.53
2022-08-12T19:34:56.007Z,6.93
2022-08-12T19:37:38.471Z,7.00
2022-08-12T19:40:32.785Z,6.18
2022-08-12T19:43:20.975Z,6.50
2022-08-12T19:45:56.752Z,6.75
2022-08-12T19:48:32.986Z,6.75
2022-08-12T19:51:08.674Z,7.00
2022-08-12T19:53:40.451Z,6.30
2022-08-12T19:56:25.157Z,6.90
2022-08-12T19:58:52.802Z,6.28
2022-08-12T20:01:21.685Z,6.10
2022-08-12T20:03:59.124Z,7.25
2022-08-12T20:06:33.925Z,7.63
2022-08-12T20:09:01.694Z,8.00
2022-08-12T20:12:09.440Z,8.30
2022-08-12T20:14:19.437Z,7.20
2022-08-12T20:17:11.481Z,7.93
2022-08-12T20:20:01.014Z,9.10
2022-08-12T20:22:31.732Z,9.88
2022-08-12T20:25:07.417Z,8.50
2022-08-12T20:28:02.991Z,10.30
2022-08-12T20:30:37.854Z,10.52
2022-08-12T20:33:18.336Z,11.15
2022-08-12T20:36:12.934Z,11.07
2022-08-12T20:38:46.817Z,10.63
2022-08-12T20:41:17.587Z,12.20
2022-08-12T20:44:17.028Z,12.05
2022-08-12T20:47:19.609Z,10.52
2022-08-12T20:50:11.606Z,11.45
2022-08-12T20:52:39.740Z,11.43
2022-08-12T20:55:15.778Z,12.32
2022-08-12T20:58:02.827Z,14.00
2022-08-12T21:01:06.314Z,12.30
2022-08-12T21:06:56.365Z,12.60
2022-08-12T21:09:28.175Z,12.18
2022-08-12T21:11:57.244Z,11.80
2022-08-12T21:14:39.801Z,11.98
2022-08-12T21:20:39.832Z,10.75
2022-08-12T21:23:13.973Z,10.98
2022-08-12T21:25:46.612Z,11.43
2022-08-12T21:28:15.058Z,11.95
2022-08-12T21:31:11.760Z,10.95
2022-08-12T21:33:32.127Z,10.35
2022-08-12T21:36:22.577Z,11.30
2022-08-12T21:39:20.356Z,11.38
2022-08-12T21:41:54.292Z,11.10
2022-08-12T21:47:20.749Z,11.13
2022-08-12T21:50:04.333Z,11.32
2022-08-12T21:52:40.916Z,10.93
2022-08-12T21:55:18.536Z,10.70
2022-08-12T21:57:53.262Z,11.65
2022-08-12T22:00:31.925Z,11.05
2022-08-12T22:04:01.962Z,11.63
2022-08-12T22:06:30.362Z,11.43
2022-08-12T22:09:15.944Z,12.38
2022-08-12T22:11:56.298Z,11.55
2022-08-12T22:14:30.261Z,11.23
2022-08-12T22:17:00.672Z,11.20
2022-08-12T22:19:28.236Z,11.30
2022-08-12T22:21:58.681Z,11.15
2022-08-12T22:24:30.008Z,12.15
2022-08-12T22:27:08.062Z,11.88
2022-08-12T22:30:15.979Z,11.35
2022-08-12T22:32:51.621Z,9.80
2022-08-12T22:35:55.892Z,10.93
2022-08-12T22:38:25.527Z,10.90
2022-08-12T22:41:27.984Z,11.25
2022-08-12T22:44:13.844Z,11.18
2022-08-12T22:46:54.324Z,10.98
2022-08-12T22:49:37.325Z,10.70
2022-08-12T22:52:18.535Z,10.68
2022-08-12T22:55:03.161Z,10.18
2022-08-12T22:57:49.783Z,9.68
2022-08-12T23:00:27.121Z,9.25
2022-08-12T23:03:00.330Z,10.07
2022-08-12T23:05:56.635Z,9.32
2022-08-12T23:08:29.937Z,8.45
2022-08-12T23:11:04.546Z,8.90
2022-08-12T23:13:48.490Z,9.43
2022-08-12T23:16:28.031Z,9.00
2022-08-12T23:19:01.417Z,8.48
2022-08-12T23:22:04.197Z,8.70
2022-08-12T23:24:17.257Z,8.27
2022-08-12T23:27:04.555Z,7.90
2022-08-12T23:29:43.043Z,7.35
2022-08-12T23:32:35.087Z,7.70
2022-08-12T23:35:03.527Z,7.40
2022-08-12T23:37:46.754Z,6.75
2022-08-12T23:40:22.502Z,6.82
2022-08-12T23:42:54.389Z,6.50
2022-08-12T23:45:31.266Z,7.65
2022-08-12T23:48:00.867Z,7.90
2022-08-12T23:50:34.405Z,7.43
2022-08-12T23:53:05.787Z,6.90
2022-08-12T23:55:40.890Z,6.88
2022-08-12T23:58:21.222Z,7.32
